sensor_id;sensor_type;location;lat;lon;timestamp;P1;durP1;ratioP1;P2;durP2;ratioP2
40515;SDS011;26216;53.724;9.898;2022-09-01T00:00:38;0.40;;;0.38;;
40515;SDS011;26216;53.724;9.898;2022-09-01T00:03:06;0.52;;;0.30;;
40515;SDS011;26216;53.724;9.898;2022-09-01T00:05:35;0.80;;;0.30;;
40515;SDS011;26216;53.724;9.898;2022-09-01T00:08:01;0.43;;;0.30;;
40515;SDS011;26216;53.724;9.898;2022-09-01T00:10:28;0.35;;;0.30;;
40515;SDS011;26216;53.724;9.898;2022-09-01T00:12:54;0.20;;;0.20;;
40515;SDS011;26216;53.724;9.898;2022-09-01T00:15:20;0.90;;;0.40;;
40515;SDS011;26216;53.724;9.898;2022-09-01T00:17:46;0.40;;;0.30;;
40515;SDS011;26216;53.724;9.898;2022-09-01T00:20:12;0.43;;;0.30;;
40515;SDS011;26216;53.724;9.898;2022-09-01T00:22:38;0.50;;;0.30;;
40515;SDS011;26216;53.724;9.898;2022-09-01T00:25:04;0.40;;;0.30;;
40515;SDS011;26216;53.724;9.898;2022-09-01T00:27:32;0.80;;;0.40;;
40515;SDS011;26216;53.724;9.898;2022-09-01T00:29:58;0.40;;;0.40;;
40515;SDS011;26216;53.724;9.898;2022-09-01T00:32:24;0.40;;;0.40;;
40515;SDS011;26216;53.724;9.898;2022-09-01T00:34:50;0.30;;;0.30;;
40515;SDS011;26216;53.724;9.898;2022-09-01T00:37:16;0.28;;;0.28;;
40515;SDS011;26216;53.724;9.898;2022-09-01T00:39:44;0.45;;;0.40;;
40515;SDS011;26216;53.724;9.898;2022-09-01T00:42:10;0.30;;;0.30;;
40515;SDS011;26216;53.724;9.898;2022-09-01T00:44:36;0.82;;;0.30;;
40515;SDS011;26216;53.724;9.898;2022-09-01T00:47:02;1.33;;;0.40;;
40515;SDS011;26216;53.724;9.898;2022-09-01T00:49:34;0.77;;;0.40;;
40515;SDS011;26216;53.724;9.898;2022-09-01T00:54:48;0.63;;;0.30;;
40515;SDS011;26216;53.724;9.898;2022-09-01T00:57:17;0.57;;;0.40;;
40515;SDS011;26216;53.724;9.898;2022-09-01T01:02:47;0.70;;;0.40;;
40515;SDS011;26216;53.724;9.898;2022-09-01T01:05:19;0.43;;;0.40;;
40515;SDS011;26216;53.724;9.898;2022-09-01T01:07:52;0.35;;;0.35;;
40515;SDS011;26216;53.724;9.898;2022-09-01T01:10:20;0.73;;;0.40;;
40515;SDS011;26216;53.724;9.898;2022-09-01T01:12:47;0.55;;;0.47;;
40515;SDS011;26216;53.724;9.898;2022-09-01T01:15:16;0.40;;;0.30;;
40515;SDS011;26216;53.724;9.898;2022-09-01T01:17:43;0.30;;;0.30;;
40515;SDS011;26216;53.724;9.898;2022-09-01T01:20:09;0.52;;;0.40;;
40515;SDS011;26216;53.724;9.898;2022-09-01T01:25:49;0.57;;;0.40;;
40515;SDS011;26216;53.724;9.898;2022-09-01T01:28:19;0.70;;;0.30;;
40515;SDS011;26216;53.724;9.898;2022-09-01T01:30:51;0.30;;;0.30;;
40515;SDS011;26216;53.724;9.898;2022-09-01T01:33:22;0.60;;;0.40;;
40515;SDS011;26216;53.724;9.898;2022-09-01T01:35:50;0.30;;;0.30;;
40515;SDS011;26216;53.724;9.898;2022-09-01T01:38:22;0.40;;;0.40;;
40515;SDS011;26216;53.724;9.898;2022-09-01T01:40:48;0.40;;;0.40;;
40515;SDS011;26216;53.724;9.898;2022-09-01T01:43:16;0.35;;;0.35;;
40515;SDS011;26216;53.724;9.898;2022-09-01T01:45:49;0.30;;;0.30;;
40515;SDS011;26216;53.724;9.898;2022-09-01T01:48:18;0.40;;;0.40;;
40515;SDS011;26216;53.724;9.898;2022-09-01T01:50:47;0.20;;;0.20;;
40515;SDS011;26216;53.724;9.898;2022-09-01T01:53:13;0.30;;;0.30;;
40515;SDS011;26216;53.724;9.898;2022-09-01T01:55:43;0.22;;;0.22;;
40515;SDS011;26216;53.724;9.898;2022-09-01T01:58:09;0.30;;;0.30;;
40515;SDS011;26216;53.724;9.898;2022-09-01T02:00:39;0.40;;;0.40;;
40515;SDS011;26216;53.724;9.898;2022-09-01T02:03:09;0.95;;;0.50;;
40515;SDS011;26216;53.724;9.898;2022-09-01T02:05:37;0.75;;;0.50;;
40515;SDS011;26216;53.724;9.898;2022-09-01T02:08:05;0.35;;;0.35;;
40515;SDS011;26216;53.724;9.898;2022-09-01T02:10:34;0.73;;;0.50;;
40515;SDS011;26216;53.724;9.898;2022-09-01T02:13:06;0.40;;;0.40;;
40515;SDS011;26216;53.724;9.898;2022-09-01T02:15:37;0.50;;;0.47;;
40515;SDS011;26216;53.724;9.898;2022-09-01T02:18:19;0.77;;;0.40;;
40515;SDS011;26216;53.724;9.898;2022-09-01T02:20:48;0.55;;;0.47;;
40515;SDS011;26216;53.724;9.898;2022-09-01T02:23:16;0.35;;;0.35;;
40515;SDS011;26216;53.724;9.898;2022-09-01T02:25:44;0.63;;;0.50;;
40515;SDS011;26216;53.724;9.898;2022-09-01T02:28:14;0.95;;;0.40;;
40515;SDS011;26216;53.724;9.898;2022-09-01T02:30:44;0.50;;;0.50;;
40515;SDS011;26216;53.724;9.898;2022-09-01T02:33:12;0.50;;;0.50;;
40515;SDS011;26216;53.724;9.898;2022-09-01T02:35:46;0.70;;;0.38;;
40515;SDS011;26216;53.724;9.898;2022-09-01T02:38:14;0.57;;;0.47;;
40515;SDS011;26216;53.724;9.898;2022-09-01T02:40:42;0.90;;;0.50;;
40515;SDS011;26216;53.724;9.898;2022-09-01T02:43:10;1.85;;;0.50;;
40515;SDS011;26216;53.724;9.898;2022-09-01T02:45:38;0.40;;;0.40;;
40515;SDS011;26216;53.724;9.898;2022-09-01T02:48:08;0.47;;;0.45;;
40515;SDS011;26216;53.724;9.898;2022-09-01T02:50:37;0.73;;;0.40;;
40515;SDS011;26216;53.724;9.898;2022-09-01T02:53:05;0.57;;;0.50;;
40515;SDS011;26216;53.724;9.898;2022-09-01T02:55:42;0.50;;;0.50;;
40515;SDS011;26216;53.724;9.898;2022-09-01T02:58:08;0.60;;;0.50;;
40515;SDS011;26216;53.724;9.898;2022-09-01T03:03:09;0.50;;;0.50;;
40515;SDS011;26216;53.724;9.898;2022-09-01T03:05:41;1.42;;;0.50;;
40515;SDS011;26216;53.724;9.898;2022-09-01T03:08:09;0.57;;;0.50;;
40515;SDS011;26216;53.724;9.898;2022-09-01T03:10:41;0.50;;;0.50;;
40515;SDS011;26216;53.724;9.898;2022-09-01T03:13:19;1.00;;;0.70;;
40515;SDS011;26216;53.724;9.898;2022-09-01T03:15:46;1.77;;;0.80;;
40515;SDS011;26216;53.724;9.898;2022-09-01T03:18:12;0.98;;;0.70;;
40515;SDS011;26216;53.724;9.898;2022-09-01T03:20:40;0.80;;;0.60;;
40515;SDS011;26216;53.724;9.898;2022-09-01T03:23:09;1.10;;;0.73;;
40515;SDS011;26216;53.724;9.898;2022-09-01T03:25:39;1.30;;;0.73;;
40515;SDS011;26216;53.724;9.898;2022-09-01T03:28:06;1.23;;;0.70;;
40515;SDS011;26216;53.724;9.898;2022-09-01T03:30:32;1.02;;;0.80;;
40515;SDS011;26216;53.724;9.898;2022-09-01T03:33:00;1.15;;;0.70;;
40515;SDS011;26216;53.724;9.898;2022-09-01T03:35:27;1.25;;;0.80;;
40515;SDS011;26216;53.724;9.898;2022-09-01T03:37:56;0.80;;;0.80;;
40515;SDS011;26216;53.724;9.898;2022-09-01T03:40:26;0.73;;;0.65;;
40515;SDS011;26216;53.724;9.898;2022-09-01T03:43:00;1.10;;;0.73;;
40515;SDS011;26216;53.724;9.898;2022-09-01T03:45:29;1.88;;;0.85;;
40515;SDS011;26216;53.724;9.898;2022-09-01T03:48:02;1.00;;;0.80;;
40515;SDS011;26216;53.724;9.898;2022-09-01T03:50:33;1.52;;;0.80;;
40515;SDS011;26216;53.724;9.898;2022-09-01T03:53:05;1.20;;;0.73;;
40515;SDS011;26216;53.724;9.898;2022-09-01T03:55:34;1.23;;;0.68;;
40515;SDS011;26216;53.724;9.898;2022-09-01T03:58:03;0.80;;;0.60;;
40515;SDS011;26216;53.724;9.898;2022-09-01T04:00:32;0.77;;;0.68;;
40515;SDS011;26216;53.724;9.898;2022-09-01T04:03:02;0.83;;;0.80;;
40515;SDS011;26216;53.724;9.898;2022-09-01T04:05:31;0.60;;;0.60;;
40515;SDS011;26216;53.724;9.898;2022-09-01T04:08:00;1.35;;;0.65;;
40515;SDS011;26216;53.724;9.898;2022-09-01T04:10:30;1.17;;;0.88;;
40515;SDS011;26216;53.724;9.898;2022-09-01T04:12:58;0.57;;;0.50;;
40515;SDS011;26216;53.724;9.898;2022-09-01T04:15:24;1.08;;;0.90;;
40515;SDS011;26216;53.724;9.898;2022-09-01T04:17:52;1.02;;;0.80;;
40515;SDS011;26216;53.724;9.898;2022-09-01T04:20:40;0.98;;;0.70;;
40515;SDS011;26216;53.724;9.898;2022-09-01T04:23:15;1.52;;;0.95;;
40515;SDS011;26216;53.724;9.898;2022-09-01T04:25:49;0.82;;;0.70;;
40515;SDS011;26216;53.724;9.898;2022-09-01T04:28:15;1.25;;;0.77;;
40515;SDS011;26216;53.724;9.898;2022-09-01T04:30:48;1.30;;;0.93;;
40515;SDS011;26216;53.724;9.898;2022-09-01T04:33:15;0.90;;;0.82;;
40515;SDS011;26216;53.724;9.898;2022-09-01T04:35:41;1.15;;;0.80;;
40515;SDS011;26216;53.724;9.898;2022-09-01T04:38:07;1.10;;;0.80;;
40515;SDS011;26216;53.724;9.898;2022-09-01T04:40:39;0.93;;;0.80;;
40515;SDS011;26216;53.724;9.898;2022-09-01T04:43:05;0.90;;;0.60;;
40515;SDS011;26216;53.724;9.898;2022-09-01T04:45:36;1.27;;;0.93;;
40515;SDS011;26216;53.724;9.898;2022-09-01T04:48:05;1.33;;;0.80;;
40515;SDS011;26216;53.724;9.898;2022-09-01T04:50:31;2.55;;;0.90;;
40515;SDS011;26216;53.724;9.898;2022-09-01T04:52:59;1.23;;;0.80;;
40515;SDS011;26216;53.724;9.898;2022-09-01T04:55:28;0.60;;;0.60;;
40515;SDS011;26216;53.724;9.898;2022-09-01T04:57:55;1.00;;;0.77;;
40515;SDS011;26216;53.724;9.898;2022-09-01T05:00:24;1.17;;;0.88;;
40515;SDS011;26216;53.724;9.898;2022-09-01T05:02:56;1.25;;;0.90;;
40515;SDS011;26216;53.724;9.898;2022-09-01T05:05:28;0.85;;;0.70;;
40515;SDS011;26216;53.724;9.898;2022-09-01T05:08:04;0.93;;;0.73;;
40515;SDS011;26216;53.724;9.898;2022-09-01T05:10:30;1.40;;;1.00;;
40515;SDS011;26216;53.724;9.898;2022-09-01T05:12:58;0.90;;;0.85;;
40515;SDS011;26216;53.724;9.898;2022-09-01T05:15:25;1.00;;;0.82;;
40515;SDS011;26216;53.724;9.898;2022-09-01T05:17:51;1.73;;;1.05;;
40515;SDS011;26216;53.724;9.898;2022-09-01T05:20:18;1.60;;;1.10;;
40515;SDS011;26216;53.724;9.898;2022-09-01T05:22:45;1.63;;;1.13;;
40515;SDS011;26216;53.724;9.898;2022-09-01T05:25:11;0.77;;;0.75;;
40515;SDS011;26216;53.724;9.898;2022-09-01T05:27:41;0.98;;;0.80;;
40515;SDS011;26216;53.724;9.898;2022-09-01T05:30:13;2.45;;;0.95;;
40515;SDS011;26216;53.724;9.898;2022-09-01T05:32:41;0.90;;;0.77;;
40515;SDS011;26216;53.724;9.898;2022-09-01T05:35:07;1.63;;;1.10;;
40515;SDS011;26216;53.724;9.898;2022-09-01T05:37:36;1.67;;;1.02;;
40515;SDS011;26216;53.724;9.898;2022-09-01T05:40:03;1.80;;;0.85;;
40515;SDS011;26216;53.724;9.898;2022-09-01T05:42:31;1.00;;;0.65;;
40515;SDS011;26216;53.724;9.898;2022-09-01T05:44:58;1.00;;;0.90;;
40515;SDS011;26216;53.724;9.898;2022-09-01T05:47:24;0.60;;;0.60;;
40515;SDS011;26216;53.724;9.898;2022-09-01T05:49:50;1.83;;;0.95;;
40515;SDS011;26216;53.724;9.898;2022-09-01T05:52:17;1.00;;;0.90;;
40515;SDS011;26216;53.724;9.898;2022-09-01T05:54:50;1.55;;;0.90;;
40515;SDS011;26216;53.724;9.898;2022-09-01T05:57:16;2.03;;;0.80;;
40515;SDS011;26216;53.724;9.898;2022-09-01T05:59:43;0.77;;;0.70;;
40515;SDS011;26216;53.724;9.898;2022-09-01T06:02:17;1.40;;;0.90;;
40515;SDS011;26216;53.724;9.898;2022-09-01T06:04:45;1.00;;;0.75;;
40515;SDS011;26216;53.724;9.898;2022-09-01T06:07:13;1.45;;;0.93;;
40515;SDS011;26216;53.724;9.898;2022-09-01T06:09:43;1.58;;;1.10;;
40515;SDS011;26216;53.724;9.898;2022-09-01T06:12:12;1.55;;;0.93;;
40515;SDS011;26216;53.724;9.898;2022-09-01T06:14:46;2.05;;;0.80;;
40515;SDS011;26216;53.724;9.898;2022-09-01T06:17:13;1.98;;;0.80;;
40515;SDS011;26216;53.724;9.898;2022-09-01T06:19:43;1.00;;;0.63;;
40515;SDS011;26216;53.724;9.898;2022-09-01T06:22:10;1.05;;;0.70;;
40515;SDS011;26216;53.724;9.898;2022-09-01T06:24:36;0.82;;;0.70;;
40515;SDS011;26216;53.724;9.898;2022-09-01T06:27:06;1.35;;;0.60;;
40515;SDS011;26216;53.724;9.898;2022-09-01T06:29:35;0.80;;;0.70;;
40515;SDS011;26216;53.724;9.898;2022-09-01T06:32:04;1.63;;;0.70;;
40515;SDS011;26216;53.724;9.898;2022-09-01T06:34:38;0.70;;;0.60;;
40515;SDS011;26216;53.724;9.898;2022-09-01T06:37:06;2.00;;;0.88;;
40515;SDS011;26216;53.724;9.898;2022-09-01T06:39:32;2.40;;;0.73;;
40515;SDS011;26216;53.724;9.898;2022-09-01T06:41:58;1.70;;;0.70;;
40515;SDS011;26216;53.724;9.898;2022-09-01T06:44:25;0.68;;;0.60;;
40515;SDS011;26216;53.724;9.898;2022-09-01T06:46:51;0.70;;;0.43;;
40515;SDS011;26216;53.724;9.898;2022-09-01T06:49:17;0.95;;;0.70;;
40515;SDS011;26216;53.724;9.898;2022-09-01T06:51:53;0.70;;;0.60;;
40515;SDS011;26216;53.724;9.898;2022-09-01T06:54:19;0.80;;;0.50;;
40515;SDS011;26216;53.724;9.898;2022-09-01T06:56:45;1.15;;;0.60;;
40515;SDS011;26216;53.724;9.898;2022-09-01T06:59:11;1.00;;;0.60;;
40515;SDS011;26216;53.724;9.898;2022-09-01T07:01:39;0.95;;;0.65;;
40515;SDS011;26216;53.724;9.898;2022-09-01T07:04:05;1.52;;;0.50;;
40515;SDS011;26216;53.724;9.898;2022-09-01T07:06:31;0.73;;;0.52;;
40515;SDS011;26216;53.724;9.898;2022-09-01T07:08:59;1.30;;;0.60;;
40515;SDS011;26216;53.724;9.898;2022-09-01T07:11:26;1.23;;;0.60;;
40515;SDS011;26216;53.724;9.898;2022-09-01T07:16:26;0.88;;;0.50;;
40515;SDS011;26216;53.724;9.898;2022-09-01T07:18:56;1.98;;;0.55;;
40515;SDS011;26216;53.724;9.898;2022-09-01T07:21:25;1.48;;;0.63;;
40515;SDS011;26216;53.724;9.898;2022-09-01T07:23:53;0.75;;;0.60;;
40515;SDS011;26216;53.724;9.898;2022-09-01T07:26:19;0.88;;;0.40;;
40515;SDS011;26216;53.724;9.898;2022-09-01T07:28:47;1.73;;;0.50;;
40515;SDS011;26216;53.724;9.898;2022-09-01T07:31:19;1.13;;;0.70;;
40515;SDS011;26216;53.724;9.898;2022-09-01T07:33:50;1.15;;;0.70;;
40515;SDS011;26216;53.724;9.898;2022-09-01T07:36:17;1.42;;;0.50;;
40515;SDS011;26216;53.724;9.898;2022-09-01T07:38:44;0.85;;;0.50;;
40515;SDS011;26216;53.724;9.898;2022-09-01T07:41:15;0.65;;;0.40;;
40515;SDS011;26216;53.724;9.898;2022-09-01T07:43:41;0.40;;;0.40;;
40515;SDS011;26216;53.724;9.898;2022-09-01T07:46:09;0.40;;;0.40;;
40515;SDS011;26216;53.724;9.898;2022-09-01T07:48:36;1.00;;;0.40;;
40515;SDS011;26216;53.724;9.898;2022-09-01T07:51:03;0.70;;;0.40;;
40515;SDS011;26216;53.724;9.898;2022-09-01T07:53:31;0.40;;;0.32;;
40515;SDS011;26216;53.724;9.898;2022-09-01T07:55:59;0.82;;;0.40;;
40515;SDS011;26216;53.724;9.898;2022-09-01T07:58:33;0.55;;;0.30;;
40515;SDS011;26216;53.724;9.898;2022-09-01T08:01:04;1.08;;;0.45;;
40515;SDS011;26216;53.724;9.898;2022-09-01T08:03:33;0.35;;;0.32;;
40515;SDS011;26216;53.724;9.898;2022-09-01T08:06:07;0.73;;;0.43;;
40515;SDS011;26216;53.724;9.898;2022-09-01T08:08:35;0.70;;;0.47;;
40515;SDS011;26216;53.724;9.898;2022-09-01T08:11:03;0.57;;;0.50;;
40515;SDS011;26216;53.724;9.898;2022-09-01T08:13:30;0.73;;;0.40;;
40515;SDS011;26216;53.724;9.898;2022-09-01T08:16:03;0.57;;;0.40;;
40515;SDS011;26216;53.724;9.898;2022-09-01T08:18:29;0.40;;;0.40;;
40515;SDS011;26216;53.724;9.898;2022-09-01T08:20:55;0.40;;;0.30;;
40515;SDS011;26216;53.724;9.898;2022-09-01T08:23:21;0.50;;;0.40;;
40515;SDS011;26216;53.724;9.898;2022-09-01T08:25:50;0.52;;;0.40;;
40515;SDS011;26216;53.724;9.898;2022-09-01T08:28:17;0.95;;;0.50;;
40515;SDS011;26216;53.724;9.898;2022-09-01T08:30:44;0.70;;;0.43;;
40515;SDS011;26216;53.724;9.898;2022-09-01T08:33:12;1.38;;;0.75;;
40515;SDS011;26216;53.724;9.898;2022-09-01T08:35:42;0.77;;;0.40;;
40515;SDS011;26216;53.724;9.898;2022-09-01T08:38:11;1.27;;;0.50;;
40515;SDS011;26216;53.724;9.898;2022-09-01T08:40:37;0.77;;;0.40;;
40515;SDS011;26216;53.724;9.898;2022-09-01T08:46:14;0.75;;;0.50;;
40515;SDS011;26216;53.724;9.898;2022-09-01T08:48:49;0.65;;;0.40;;
40515;SDS011;26216;53.724;9.898;2022-09-01T08:57:19;0.30;;;0.30;;
40515;SDS011;26216;53.724;9.898;2022-09-01T08:59:53;0.35;;;0.35;;
40515;SDS011;26216;53.724;9.898;2022-09-01T09:02:38;0.63;;;0.47;;
40515;SDS011;26216;53.724;9.898;2022-09-01T09:08:50;0.30;;;0.30;;
40515;SDS011;26216;53.724;9.898;2022-09-01T09:11:28;0.47;;;0.40;;
40515;SDS011;26216;53.724;9.898;2022-09-01T09:16:42;1.10;;;0.60;;
40515;SDS011;26216;53.724;9.898;2022-09-01T09:19:21;1.23;;;0.50;;
40515;SDS011;26216;53.724;9.898;2022-09-01T09:21:54;0.68;;;0.40;;
40515;SDS011;26216;53.724;9.898;2022-09-01T09:27:20;0.35;;;0.35;;
40515;SDS011;26216;53.724;9.898;2022-09-01T09:29:49;0.73;;;0.50;;
40515;SDS011;26216;53.724;9.898;2022-09-01T09:32:20;0.35;;;0.30;;
40515;SDS011;26216;53.724;9.898;2022-09-01T09:34:47;0.98;;;0.30;;
40515;SDS011;26216;53.724;9.898;2022-09-01T09:37:22;0.75;;;0.57;;
40515;SDS011;26216;53.724;9.898;2022-09-01T09:43:04;0.77;;;0.40;;
40515;SDS011;26216;53.724;9.898;2022-09-01T09:45:31;0.73;;;0.40;;
40515;SDS011;26216;53.724;9.898;2022-09-01T09:48:25;0.73;;;0.52;;
40515;SDS011;26216;53.724;9.898;2022-09-01T09:50:53;0.43;;;0.30;;
40515;SDS011;26216;53.724;9.898;2022-09-01T09:53:26;0.50;;;0.40;;
40515;SDS011;26216;53.724;9.898;2022-09-01T09:58:24;1.65;;;0.40;;
40515;SDS011;26216;53.724;9.898;2022-09-01T10:01:28;1.15;;;0.38;;
40515;SDS011;26216;53.724;9.898;2022-09-01T10:03:51;0.45;;;0.32;;
40515;SDS011;26216;53.724;9.898;2022-09-01T10:06:31;0.50;;;0.43;;
40515;SDS011;26216;53.724;9.898;2022-09-01T10:09:14;0.40;;;0.40;;
40515;SDS011;26216;53.724;9.898;2022-09-01T10:11:57;0.57;;;0.35;;
40515;SDS011;26216;53.724;9.898;2022-09-01T10:14:28;0.73;;;0.30;;
40515;SDS011;26216;53.724;9.898;2022-09-01T10:18:11;0.77;;;0.40;;
40515;SDS011;26216;53.724;9.898;2022-09-01T10:20:13;0.57;;;0.50;;
40515;SDS011;26216;53.724;9.898;2022-09-01T10:22:45;0.63;;;0.40;;
40515;SDS011;26216;53.724;9.898;2022-09-01T10:25:17;2.75;;;0.47;;
40515;SDS011;26216;53.724;9.898;2022-09-01T10:28:00;0.60;;;0.40;;
40515;SDS011;26216;53.724;9.898;2022-09-01T10:30:32;1.38;;;0.50;;
40515;SDS011;26216;53.724;9.898;2022-09-01T10:33:09;0.40;;;0.32;;
40515;SDS011;26216;53.724;9.898;2022-09-01T10:35:39;0.60;;;0.40;;
40515;SDS011;26216;53.724;9.898;2022-09-01T10:38:09;0.77;;;0.40;;
40515;SDS011;26216;53.724;9.898;2022-09-01T10:40:47;1.35;;;0.22;;
40515;SDS011;26216;53.724;9.898;2022-09-01T10:43:43;0.40;;;0.40;;
40515;SDS011;26216;53.724;9.898;2022-09-01T10:48:46;0.93;;;0.47;;
40515;SDS011;26216;53.724;9.898;2022-09-01T10:56:34;0.77;;;0.40;;
40515;SDS011;26216;53.724;9.898;2022-09-01T10:59:05;0.32;;;0.32;;
40515;SDS011;26216;53.724;9.898;2022-09-01T11:04:15;0.38;;;0.32;;
40515;SDS011;26216;53.724;9.898;2022-09-01T11:06:56;1.65;;;0.80;;
40515;SDS011;26216;53.724;9.898;2022-09-01T11:12:24;0.35;;;0.35;;
40515;SDS011;26216;53.724;9.898;2022-09-01T11:18:04;0.85;;;0.40;;
40515;SDS011;26216;53.724;9.898;2022-09-01T11:20:23;0.50;;;0.40;;
40515;SDS011;26216;53.724;9.898;2022-09-01T11:36:00;0.50;;;0.30;;
40515;SDS011;26216;53.724;9.898;2022-09-01T11:38:45;0.85;;;0.50;;
40515;SDS011;26216;53.724;9.898;2022-09-01T11:41:42;0.43;;;0.40;;
40515;SDS011;26216;53.724;9.898;2022-09-01T11:44:25;0.50;;;0.50;;
40515;SDS011;26216;53.724;9.898;2022-09-01T11:47:01;0.55;;;0.50;;
40515;SDS011;26216;53.724;9.898;2022-09-01T11:49:33;0.70;;;0.40;;
40515;SDS011;26216;53.724;9.898;2022-09-01T11:52:03;0.45;;;0.40;;
40515;SDS011;26216;53.724;9.898;2022-09-01T11:54:36;0.45;;;0.43;;
40515;SDS011;26216;53.724;9.898;2022-09-01T11:59:54;0.90;;;0.40;;
40515;SDS011;26216;53.724;9.898;2022-09-01T12:02:25;0.75;;;0.43;;
40515;SDS011;26216;53.724;9.898;2022-09-01T12:04:54;0.80;;;0.40;;
40515;SDS011;26216;53.724;9.898;2022-09-01T12:07:40;0.30;;;0.30;;
40515;SDS011;26216;53.724;9.898;2022-09-01T12:10:13;1.10;;;0.57;;
40515;SDS011;26216;53.724;9.898;2022-09-01T12:15:59;0.60;;;0.50;;
40515;SDS011;26216;53.724;9.898;2022-09-01T12:18:28;0.50;;;0.43;;
40515;SDS011;26216;53.724;9.898;2022-09-01T12:20:56;0.70;;;0.40;;
40515;SDS011;26216;53.724;9.898;2022-09-01T12:23:34;0.82;;;0.40;;
40515;SDS011;26216;53.724;9.898;2022-09-01T12:26:09;0.60;;;0.50;;
40515;SDS011;26216;53.724;9.898;2022-09-01T12:28:38;0.47;;;0.47;;
40515;SDS011;26216;53.724;9.898;2022-09-01T12:31:06;1.35;;;0.50;;
40515;SDS011;26216;53.724;9.898;2022-09-01T12:33:37;0.40;;;0.30;;
40515;SDS011;26216;53.724;9.898;2022-09-01T12:38:56;0.40;;;0.40;;
40515;SDS011;26216;53.724;9.898;2022-09-01T12:41:45;0.30;;;0.30;;
40515;SDS011;26216;53.724;9.898;2022-09-01T12:44:29;0.85;;;0.52;;
40515;SDS011;26216;53.724;9.898;2022-09-01T12:47:09;0.40;;;0.30;;
40515;SDS011;26216;53.724;9.898;2022-09-01T12:52:14;0.28;;;0.20;;
40515;SDS011;26216;53.724;9.898;2022-09-01T13:02:41;0.82;;;0.60;;
40515;SDS011;26216;53.724;9.898;2022-09-01T13:05:27;0.65;;;0.47;;
40515;SDS011;26216;53.724;9.898;2022-09-01T13:07:57;2.00;;;1.02;;
40515;SDS011;26216;53.724;9.898;2022-09-01T13:10:29;0.50;;;0.40;;
40515;SDS011;26216;53.724;9.898;2022-09-01T13:12:59;0.95;;;0.60;;
40515;SDS011;26216;53.724;9.898;2022-09-01T13:15:26;0.50;;;0.38;;
40515;SDS011;26216;53.724;9.898;2022-09-01T13:17:52;1.27;;;0.45;;
40515;SDS011;26216;53.724;9.898;2022-09-01T13:20:18;0.60;;;0.40;;
40515;SDS011;26216;53.724;9.898;2022-09-01T13:22:44;0.77;;;0.47;;
40515;SDS011;26216;53.724;9.898;2022-09-01T13:25:14;1.08;;;0.28;;
40515;SDS011;26216;53.724;9.898;2022-09-01T13:27:43;0.40;;;0.40;;
40515;SDS011;26216;53.724;9.898;2022-09-01T13:30:12;0.30;;;0.30;;
40515;SDS011;26216;53.724;9.898;2022-09-01T13:32:41;0.55;;;0.50;;
40515;SDS011;26216;53.724;9.898;2022-09-01T13:35:07;0.50;;;0.38;;
40515;SDS011;26216;53.724;9.898;2022-09-01T13:37:34;0.50;;;0.40;;
40515;SDS011;26216;53.724;9.898;2022-09-01T13:40:00;0.85;;;0.40;;
40515;SDS011;26216;53.724;9.898;2022-09-01T13:42:27;1.60;;;0.40;;
40515;SDS011;26216;53.724;9.898;2022-09-01T13:44:52;0.85;;;0.40;;
40515;SDS011;26216;53.724;9.898;2022-09-01T13:47:18;0.50;;;0.43;;
40515;SDS011;26216;53.724;9.898;2022-09-01T13:49:44;1.75;;;0.50;;
40515;SDS011;26216;53.724;9.898;2022-09-01T13:52:10;1.42;;;0.50;;
40515;SDS011;26216;53.724;9.898;2022-09-01T13:54:37;0.75;;;0.47;;
40515;SDS011;26216;53.724;9.898;2022-09-01T13:57:03;0.90;;;0.40;;
40515;SDS011;26216;53.724;9.898;2022-09-01T13:59:29;0.52;;;0.40;;
40515;SDS011;26216;53.724;9.898;2022-09-01T14:01:57;0.70;;;0.43;;
40515;SDS011;26216;53.724;9.898;2022-09-01T14:04:22;0.57;;;0.47;;
40515;SDS011;26216;53.724;9.898;2022-09-01T14:06:48;0.45;;;0.30;;
40515;SDS011;26216;53.724;9.898;2022-09-01T14:09:14;1.08;;;0.40;;
40515;SDS011;26216;53.724;9.898;2022-09-01T14:11:40;0.98;;;0.50;;
40515;SDS011;26216;53.724;9.898;2022-09-01T14:14:06;0.40;;;0.40;;
40515;SDS011;26216;53.724;9.898;2022-09-01T14:16:32;0.50;;;0.40;;
40515;SDS011;26216;53.724;9.898;2022-09-01T14:18:58;0.13;;;0.10;;
40515;SDS011;26216;53.724;9.898;2022-09-01T14:21:25;0.52;;;0.30;;
40515;SDS011;26216;53.724;9.898;2022-09-01T14:23:51;0.30;;;0.30;;
40515;SDS011;26216;53.724;9.898;2022-09-01T14:26:17;1.17;;;0.43;;
40515;SDS011;26216;53.724;9.898;2022-09-01T14:28:43;0.55;;;0.38;;
40515;SDS011;26216;53.724;9.898;2022-09-01T14:31:15;1.17;;;0.40;;
40515;SDS011;26216;53.724;9.898;2022-09-01T14:33:43;1.75;;;0.68;;
40515;SDS011;26216;53.724;9.898;2022-09-01T14:36:15;1.15;;;0.57;;
40515;SDS011;26216;53.724;9.898;2022-09-01T14:38:43;1.45;;;0.30;;
40515;SDS011;26216;53.724;9.898;2022-09-01T14:41:11;0.30;;;0.30;;
40515;SDS011;26216;53.724;9.898;2022-09-01T14:43:39;0.75;;;0.60;;
40515;SDS011;26216;53.724;9.898;2022-09-01T14:46:07;0.52;;;0.40;;
40515;SDS011;26216;53.724;9.898;2022-09-01T14:48:35;0.38;;;0.38;;
40515;SDS011;26216;53.724;9.898;2022-09-01T14:51:02;0.98;;;0.60;;
40515;SDS011;26216;53.724;9.898;2022-09-01T14:53:29;0.73;;;0.50;;
40515;SDS011;26216;53.724;9.898;2022-09-01T14:55:56;0.43;;;0.32;;
40515;SDS011;26216;53.724;9.898;2022-09-01T14:58:24;0.60;;;0.40;;
40515;SDS011;26216;53.724;9.898;2022-09-01T15:00:52;0.40;;;0.40;;
40515;SDS011;26216;53.724;9.898;2022-09-01T15:03:23;0.60;;;0.50;;
40515;SDS011;26216;53.724;9.898;2022-09-01T15:05:51;0.88;;;0.50;;
40515;SDS011;26216;53.724;9.898;2022-09-01T15:08:19;0.47;;;0.40;;
40515;SDS011;26216;53.724;9.898;2022-09-01T15:10:47;0.40;;;0.40;;
40515;SDS011;26216;53.724;9.898;2022-09-01T15:13:13;0.60;;;0.50;;
40515;SDS011;26216;53.724;9.898;2022-09-01T15:15:39;0.40;;;0.40;;
40515;SDS011;26216;53.724;9.898;2022-09-01T15:18:05;0.88;;;0.50;;
40515;SDS011;26216;53.724;9.898;2022-09-01T15:20:31;0.45;;;0.30;;
40515;SDS011;26216;53.724;9.898;2022-09-01T15:23:20;3.17;;;0.50;;
40515;SDS011;26216;53.724;9.898;2022-09-01T15:25:49;0.40;;;0.35;;
40515;SDS011;26216;53.724;9.898;2022-09-01T15:28:17;0.70;;;0.40;;
40515;SDS011;26216;53.724;9.898;2022-09-01T15:30:43;0.68;;;0.50;;
40515;SDS011;26216;53.724;9.898;2022-09-01T15:33:10;0.90;;;0.47;;
40515;SDS011;26216;53.724;9.898;2022-09-01T15:35:36;0.50;;;0.45;;
40515;SDS011;26216;53.724;9.898;2022-09-01T15:38:03;0.30;;;0.30;;
40515;SDS011;26216;53.724;9.898;2022-09-01T15:40:31;0.50;;;0.40;;
40515;SDS011;26216;53.724;9.898;2022-09-01T15:42:59;0.95;;;0.30;;
40515;SDS011;26216;53.724;9.898;2022-09-01T15:45:25;0.45;;;0.45;;
40515;SDS011;26216;53.724;9.898;2022-09-01T15:47:53;0.95;;;0.60;;
40515;SDS011;26216;53.724;9.898;2022-09-01T15:50:21;0.88;;;0.57;;
40515;SDS011;26216;53.724;9.898;2022-09-01T15:52:53;0.63;;;0.52;;
40515;SDS011;26216;53.724;9.898;2022-09-01T15:55:36;0.65;;;0.43;;
40515;SDS011;26216;53.724;9.898;2022-09-01T15:58:10;1.02;;;0.70;;
40515;SDS011;26216;53.724;9.898;2022-09-01T16:00:38;0.38;;;0.30;;
40515;SDS011;26216;53.724;9.898;2022-09-01T16:03:04;0.70;;;0.40;;
40515;SDS011;26216;53.724;9.898;2022-09-01T16:05:32;0.55;;;0.47;;
40515;SDS011;26216;53.724;9.898;2022-09-01T16:08:00;0.68;;;0.30;;
40515;SDS011;26216;53.724;9.898;2022-09-01T16:10:29;1.55;;;0.50;;
40515;SDS011;26216;53.724;9.898;2022-09-01T16:12:55;0.82;;;0.50;;
40515;SDS011;26216;53.724;9.898;2022-09-01T16:15:22;0.60;;;0.50;;
40515;SDS011;26216;53.724;9.898;2022-09-01T16:23:17;0.60;;;0.38;;
40515;SDS011;26216;53.724;9.898;2022-09-01T16:25:45;0.47;;;0.40;;
40515;SDS011;26216;53.724;9.898;2022-09-01T16:28:30;0.38;;;0.30;;
40515;SDS011;26216;53.724;9.898;2022-09-01T16:31:10;0.70;;;0.40;;
40515;SDS011;26216;53.724;9.898;2022-09-01T16:33:38;0.68;;;0.40;;
40515;SDS011;26216;53.724;9.898;2022-09-01T16:44:39;0.38;;;0.38;;